createdAt,value
2022-07-26T00:01:17.103Z,23.31
2022-07-26T00:03:45.197Z,23.31
2022-07-26T00:06:13.349Z,23.25
2022-07-26T00:08:41.297Z,23.18
2022-07-26T00:11:09.278Z,23.17
2022-07-26T00:13:38.621Z,23.13
2022-07-26T00:16:07.747Z,23.14
2022-07-26T00:18:35.759Z,23.14
2022-07-26T00:21:03.881Z,23.10
2022-07-26T00:23:35.060Z,23.03
2022-07-26T00:26:02.955Z,23.01
2022-07-26T00:28:31.185Z,22.98
2022-07-26T00:31:01.033Z,22.94
2022-07-26T00:33:29.264Z,22.96
2022-07-26T00:35:57.451Z,22.92
2022-07-26T00:38:25.485Z,22.93
2022-07-26T00:40:54.549Z,22.78
2022-07-26T00:43:22.514Z,22.71
2022-07-26T00:45:50.897Z,22.73
2022-07-26T00:48:20.282Z,22.47
2022-07-26T00:50:48.388Z,22.45
2022-07-26T00:53:16.682Z,22.41
2022-07-26T00:55:44.693Z,22.25
2022-07-26T00:58:13.499Z,22.19
2022-07-26T01:00:41.666Z,22.11
2022-07-26T01:03:10.225Z,22.06
2022-07-26T01:05:39.567Z,21.95
2022-07-26T01:08:07.749Z,22.02
2022-07-26T01:10:35.735Z,21.98
2022-07-26T01:13:03.593Z,21.91
2022-07-26T01:15:31.560Z,21.98
2022-07-26T01:17:59.520Z,21.91
2022-07-26T01:20:27.571Z,22.01
2022-07-26T01:22:56.915Z,22.01
2022-07-26T01:25:31.942Z,21.89
2022-07-26T01:28:00.034Z,21.89
2022-07-26T01:30:28.482Z,21.81
2022-07-26T01:32:56.727Z,21.79
2022-07-26T01:35:24.653Z,21.80
2022-07-26T01:37:58.468Z,21.81
2022-07-26T01:40:26.570Z,21.64
2022-07-26T01:42:54.585Z,21.61
2022-07-26T01:45:22.686Z,21.71
2022-07-26T01:47:51.088Z,21.63
2022-07-26T01:50:19.569Z,21.68
2022-07-26T01:52:47.705Z,21.62
2022-07-26T01:55:17.093Z,21.50
2022-07-26T01:57:46.184Z,21.34
2022-07-26T02:00:15.226Z,21.42
2022-07-26T02:02:43.499Z,21.30
2022-07-26T02:05:12.539Z,21.22
2022-07-26T02:07:44.710Z,21.12
2022-07-26T02:10:14.637Z,21.14
2022-07-26T02:12:44.410Z,21.19
2022-07-26T02:15:14.241Z,21.12
2022-07-26T02:17:42.917Z,21.22
2022-07-26T02:20:11.922Z,21.14
2022-07-26T02:22:39.893Z,21.32
2022-07-26T02:25:08.285Z,21.31
2022-07-26T02:27:36.379Z,21.30
2022-07-26T02:30:06.352Z,21.28
2022-07-26T02:32:34.521Z,21.22
2022-07-26T02:35:02.408Z,21.18
2022-07-26T02:37:30.488Z,21.23
2022-07-26T02:40:05.893Z,21.30
2022-07-26T02:42:33.793Z,21.29
2022-07-26T02:45:01.888Z,21.29
2022-07-26T02:47:32.915Z,21.43
2022-07-26T02:50:01.077Z,21.35
2022-07-26T02:52:29.031Z,21.22
2022-07-26T02:54:58.062Z,21.09
2022-07-26T02:57:26.021Z,20.98
2022-07-26T02:59:53.897Z,20.91
2022-07-26T03:02:21.909Z,20.92
2022-07-26T03:04:52.151Z,20.92
2022-07-26T03:07:20.013Z,20.83
2022-07-26T03:09:47.941Z,20.80
2022-07-26T03:12:17.180Z,20.84
2022-07-26T03:14:45.422Z,20.83
2022-07-26T03:17:13.551Z,20.72
2022-07-26T03:19:41.580Z,20.69
2022-07-26T03:22:11.727Z,20.63
2022-07-26T03:24:39.666Z,20.52
2022-07-26T03:27:07.568Z,20.40
2022-07-26T03:29:35.525Z,20.38
2022-07-26T03:32:04.459Z,20.33
2022-07-26T03:34:32.479Z,20.32
2022-07-26T03:37:00.423Z,20.18
2022-07-26T03:39:29.974Z,20.17
2022-07-26T03:41:57.820Z,20.10
2022-07-26T03:44:25.793Z,19.94
2022-07-26T03:46:53.788Z,19.91
2022-07-26T03:49:21.738Z,19.83
2022-07-26T03:51:49.963Z,19.93
2022-07-26T03:54:17.883Z,19.92
2022-07-26T03:56:46.310Z,19.92
2022-07-26T03:59:14.301Z,20.01
2022-07-26T04:01:43.481Z,19.83
2022-07-26T04:04:12.611Z,19.74
2022-07-26T04:06:41.981Z,19.64
2022-07-26T04:09:11.320Z,19.55
2022-07-26T04:11:40.063Z,19.59
2022-07-26T04:14:10.353Z,19.55
2022-07-26T04:16:43.155Z,19.52
2022-07-26T04:19:11.619Z,19.56
2022-07-26T04:21:39.747Z,19.59
2022-07-26T04:24:08.622Z,19.78
2022-07-26T04:26:36.682Z,19.83
2022-07-26T04:29:04.701Z,19.79
2022-07-26T04:31:36.643Z,19.79
2022-07-26T04:34:04.958Z,19.73
2022-07-26T04:36:33.389Z,19.73
2022-07-26T04:39:01.534Z,19.73
2022-07-26T04:41:29.414Z,19.77
2022-07-26T04:43:58.059Z,19.83
2022-07-26T04:46:26.143Z,19.78
2022-07-26T04:48:55.557Z,19.68
2022-07-26T04:51:23.637Z,19.61
2022-07-26T04:53:51.883Z,19.69
2022-07-26T04:56:19.702Z,19.65
2022-07-26T04:58:47.941Z,19.51
2022-07-26T05:01:15.884Z,19.46
2022-07-26T05:03:43.937Z,19.44
2022-07-26T05:06:13.552Z,19.46
2022-07-26T05:08:43.491Z,19.41
2022-07-26T05:11:11.391Z,19.48
2022-07-26T05:13:39.317Z,19.48
2022-07-26T05:16:11.662Z,19.51
2022-07-26T05:18:45.938Z,19.49
2022-07-26T05:21:19.509Z,19.56
2022-07-26T05:23:47.521Z,19.58
2022-07-26T05:26:15.857Z,19.74
2022-07-26T05:28:43.926Z,19.89
2022-07-26T05:31:12.022Z,20.00
2022-07-26T05:33:40.034Z,20.06
2022-07-26T05:36:08.317Z,20.14
2022-07-26T05:38:37.698Z,20.20
2022-07-26T05:41:06.092Z,20.22
2022-07-26T05:43:41.565Z,20.31
2022-07-26T05:46:11.441Z,20.22
2022-07-26T05:48:39.988Z,20.20
2022-07-26T05:51:08.139Z,20.29
2022-07-26T05:53:38.469Z,20.43
2022-07-26T05:56:07.563Z,20.45
2022-07-26T05:58:35.647Z,20.60
2022-07-26T06:01:03.488Z,20.79
2022-07-26T06:03:32.355Z,20.70
2022-07-26T06:06:00.611Z,20.65
2022-07-26T06:08:28.924Z,20.81
2022-07-26T06:10:59.102Z,20.78
2022-07-26T06:13:27.184Z,20.89
2022-07-26T06:15:57.460Z,20.86
2022-07-26T06:18:25.860Z,20.99
2022-07-26T06:20:54.183Z,20.95
2022-07-26T06:23:30.989Z,20.94
2022-07-26T06:26:05.303Z,20.91
2022-07-26T06:28:33.827Z,21.02
2022-07-26T06:31:02.091Z,20.98
2022-07-26T06:33:30.414Z,21.01
2022-07-26T06:35:58.431Z,21.27
2022-07-26T06:38:26.468Z,21.32
2022-07-26T06:40:54.451Z,21.17
2022-07-26T06:43:23.888Z,21.21
2022-07-26T06:45:52.125Z,21.24
2022-07-26T06:48:21.004Z,21.21
2022-07-26T06:50:50.166Z,21.28
2022-07-26T06:53:18.043Z,21.39
2022-07-26T06:55:46.034Z,21.39
2022-07-26T06:58:14.472Z,21.54
2022-07-26T07:00:51.053Z,21.73
2022-07-26T07:03:19.624Z,21.89
2022-07-26T07:05:50.678Z,21.87
2022-07-26T07:08:18.774Z,21.69
2022-07-26T07:10:48.217Z,21.44
2022-07-26T07:13:21.076Z,21.65
2022-07-26T07:15:50.527Z,21.87
2022-07-26T07:18:19.336Z,21.92
2022-07-26T07:20:48.270Z,21.94
2022-07-26T07:23:17.295Z,21.89
2022-07-26T07:25:45.158Z,22.00
2022-07-26T07:28:13.426Z,22.06
2022-07-26T07:30:41.404Z,22.14
2022-07-26T07:33:22.707Z,22.06
2022-07-26T07:35:52.277Z,21.88
2022-07-26T07:38:20.768Z,21.96
2022-07-26T07:40:50.791Z,21.98
2022-07-26T07:43:18.750Z,22.06
2022-07-26T07:45:48.496Z,22.07
2022-07-26T07:48:18.700Z,22.34
2022-07-26T07:50:47.280Z,22.52
2022-07-26T07:53:15.873Z,22.59
2022-07-26T07:55:46.218Z,22.66
2022-07-26T07:58:17.296Z,22.80
2022-07-26T08:00:45.666Z,22.86
2022-07-26T08:03:18.402Z,22.74
2022-07-26T08:05:50.935Z,23.09
2022-07-26T08:08:22.091Z,23.19
2022-07-26T08:10:52.986Z,23.19
2022-07-26T08:13:22.846Z,23.53
2022-07-26T08:15:51.614Z,23.09
2022-07-26T08:18:22.553Z,23.11
2022-07-26T08:20:53.362Z,23.32
2022-07-26T08:23:22.912Z,23.21
2022-07-26T08:26:01.885Z,23.01
2022-07-26T08:28:51.163Z,23.09
2022-07-26T08:31:21.658Z,22.95
2022-07-26T08:33:50.061Z,23.17
2022-07-26T08:36:20.821Z,23.40
2022-07-26T08:38:49.483Z,23.92
2022-07-26T08:41:20.313Z,23.70
2022-07-26T08:43:52.623Z,23.84
2022-07-26T08:46:28.374Z,24.27
2022-07-26T08:48:58.145Z,24.58
2022-07-26T08:51:32.949Z,24.71
2022-07-26T08:54:05.817Z,25.00
2022-07-26T08:56:36.520Z,25.14
2022-07-26T08:59:07.442Z,24.79
2022-07-26T09:01:38.630Z,24.59
2022-07-26T09:04:30.994Z,24.70
2022-07-26T09:07:07.674Z,24.50
2022-07-26T09:09:37.488Z,24.16
2022-07-26T09:12:21.285Z,24.36
2022-07-26T09:14:57.244Z,24.26
2022-07-26T09:17:43.306Z,24.29
2022-07-26T09:20:14.383Z,24.49
2022-07-26T09:23:04.866Z,25.28
2022-07-26T09:25:36.632Z,25.49
2022-07-26T09:28:23.267Z,25.73
2022-07-26T09:30:54.301Z,25.46
2022-07-26T09:33:24.763Z,25.67
2022-07-26T09:36:06.729Z,25.05
2022-07-26T09:38:43.767Z,24.51
2022-07-26T09:41:20.568Z,24.70
2022-07-26T09:43:53.762Z,25.43
2022-07-26T09:46:26.134Z,24.80
2022-07-26T09:49:12.327Z,24.40
2022-07-26T09:51:46.087Z,24.79
2022-07-26T09:54:19.917Z,25.85
2022-07-26T09:56:54.179Z,26.76
2022-07-26T09:59:24.622Z,26.23
2022-07-26T10:01:54.175Z,25.74
2022-07-26T10:04:26.998Z,26.35
2022-07-26T10:06:57.826Z,29.59
2022-07-26T10:09:35.523Z,32.55
2022-07-26T10:12:09.699Z,30.24
2022-07-26T10:14:46.813Z,27.53
2022-07-26T10:17:43.211Z,26.37
2022-07-26T10:20:32.592Z,28.58
2022-07-26T10:23:03.394Z,33.08
2022-07-26T10:25:49.509Z,29.36
2022-07-26T10:28:28.679Z,27.78
2022-07-26T10:31:37.992Z,26.45
2022-07-26T10:34:06.630Z,26.07
2022-07-26T10:36:37.014Z,25.82
2022-07-26T10:39:10.031Z,25.74
2022-07-26T10:41:47.020Z,28.35
2022-07-26T10:44:22.154Z,32.76
2022-07-26T10:47:12.065Z,34.45
2022-07-26T10:49:42.288Z,36.08
2022-07-26T10:52:16.028Z,32.53
2022-07-26T10:55:20.435Z,29.63
2022-07-26T10:57:50.310Z,27.81
2022-07-26T11:00:28.080Z,27.09
2022-07-26T11:02:59.089Z,26.89
2022-07-26T11:05:32.453Z,28.98
2022-07-26T11:08:08.079Z,29.15
2022-07-26T11:10:38.350Z,28.29
2022-07-26T11:13:16.877Z,27.65
2022-07-26T11:15:47.892Z,27.26
2022-07-26T11:18:28.093Z,27.10
2022-07-26T11:20:59.005Z,26.92
2022-07-26T11:23:33.684Z,26.44
2022-07-26T11:26:13.796Z,26.19
2022-07-26T11:29:04.026Z,26.13
2022-07-26T11:31:50.924Z,26.31
2022-07-26T11:34:29.526Z,26.62
2022-07-26T11:37:00.780Z,26.40
2022-07-26T11:39:31.464Z,26.76
2022-07-26T11:42:02.126Z,26.99
2022-07-26T11:44:32.684Z,27.05
2022-07-26T11:47:11.161Z,27.13
2022-07-26T11:52:31.056Z,33.28
2022-07-26T11:54:59.170Z,32.48
2022-07-26T11:57:30.339Z,29.42
2022-07-26T12:00:02.049Z,28.18
2022-07-26T12:02:39.981Z,27.53
2022-07-26T12:05:20.389Z,27.93
2022-07-26T12:07:59.822Z,28.32
2022-07-26T12:10:28.941Z,28.06
2022-07-26T12:13:16.812Z,28.49
2022-07-26T12:15:48.754Z,32.08
2022-07-26T12:18:24.708Z,34.28
2022-07-26T12:21:05.001Z,35.39
2022-07-26T12:23:44.629Z,32.23
2022-07-26T12:26:24.588Z,29.91
2022-07-26T12:28:53.770Z,28.91
2022-07-26T12:31:27.946Z,30.10
2022-07-26T12:33:59.416Z,28.79
2022-07-26T12:36:38.783Z,29.52
2022-07-26T12:39:12.649Z,28.68
2022-07-26T12:41:41.574Z,29.06
2022-07-26T12:44:12.612Z,30.51
2022-07-26T12:46:44.847Z,29.75
2022-07-26T12:49:13.732Z,29.23
2022-07-26T12:51:41.893Z,30.31
2022-07-26T12:54:10.311Z,30.20
2022-07-26T12:56:38.383Z,28.64
2022-07-26T12:59:08.618Z,28.26
2022-07-26T13:01:36.909Z,27.76
2022-07-26T13:04:08.898Z,27.53
2022-07-26T13:06:40.832Z,27.16
2022-07-26T13:09:09.532Z,30.21
2022-07-26T13:11:37.632Z,29.50
2022-07-26T13:14:05.654Z,28.78
2022-07-26T13:16:33.689Z,28.47
2022-07-26T13:19:01.709Z,29.83
2022-07-26T13:21:33.615Z,31.97
2022-07-26T13:24:02.799Z,33.03
2022-07-26T13:26:30.779Z,33.42
2022-07-26T13:28:59.442Z,33.55
2022-07-26T13:31:28.017Z,33.95
2022-07-26T13:33:57.297Z,34.60
2022-07-26T13:36:25.390Z,34.64
2022-07-26T13:38:54.926Z,33.45
2022-07-26T13:41:22.905Z,32.92
2022-07-26T13:43:51.249Z,33.67
2022-07-26T13:46:19.373Z,34.27
2022-07-26T13:49:00.551Z,34.03
2022-07-26T13:51:50.223Z,34.63
2022-07-26T13:54:24.103Z,34.06
2022-07-26T13:56:53.774Z,34.35
2022-07-26T13:59:21.877Z,34.36
2022-07-26T14:01:50.010Z,33.49
2022-07-26T14:04:20.157Z,33.77
2022-07-26T14:06:48.423Z,33.71
2022-07-26T14:09:17.855Z,33.20
2022-07-26T14:11:48.278Z,31.28
2022-07-26T14:14:16.573Z,30.88
2022-07-26T14:16:48.030Z,31.76
2022-07-26T14:19:17.531Z,31.89
2022-07-26T14:21:58.788Z,31.16
2022-07-26T14:24:33.725Z,30.80
2022-07-26T14:27:03.480Z,30.84
2022-07-26T14:29:33.560Z,31.01
2022-07-26T14:32:01.713Z,30.53
2022-07-26T14:34:33.902Z,30.58
2022-07-26T14:37:02.260Z,30.50
2022-07-26T14:39:43.643Z,30.20
2022-07-26T14:42:13.255Z,29.65
2022-07-26T14:44:44.607Z,29.00
2022-07-26T14:47:13.114Z,28.63
2022-07-26T14:49:41.174Z,28.19
2022-07-26T14:52:10.702Z,28.38
2022-07-26T14:54:38.614Z,28.95
2022-07-26T14:57:06.578Z,29.21
2022-07-26T14:59:35.981Z,29.22
2022-07-26T15:02:06.037Z,29.41
2022-07-26T15:04:34.550Z,29.25
2022-07-26T15:07:02.952Z,29.10
2022-07-26T15:09:30.936Z,29.01
2022-07-26T15:11:59.662Z,28.45
2022-07-26T15:14:28.179Z,28.14
2022-07-26T15:16:57.575Z,27.86
2022-07-26T15:19:26.072Z,27.85
2022-07-26T15:21:55.161Z,28.06
2022-07-26T15:24:23.658Z,28.31
2022-07-26T15:26:52.661Z,28.51
2022-07-26T15:29:20.711Z,28.71
2022-07-26T15:31:49.649Z,28.61
2022-07-26T15:34:19.843Z,28.65
2022-07-26T15:36:48.326Z,28.78
2022-07-26T15:39:17.813Z,28.72
2022-07-26T15:41:47.322Z,28.82
2022-07-26T15:44:17.294Z,29.00
2022-07-26T15:46:47.968Z,29.10
2022-07-26T15:49:17.812Z,29.08
2022-07-26T15:51:47.547Z,29.15
2022-07-26T15:54:16.106Z,29.08
2022-07-26T15:56:44.466Z,29.35
2022-07-26T15:59:12.389Z,29.39
2022-07-26T16:01:40.315Z,29.26
2022-07-26T16:04:08.711Z,29.04
2022-07-26T16:06:37.920Z,28.65
2022-07-26T16:09:22.927Z,28.57
2022-07-26T16:11:51.884Z,28.30
2022-07-26T16:14:20.840Z,28.12
2022-07-26T16:16:49.535Z,27.93
2022-07-26T16:19:17.566Z,27.66
2022-07-26T16:21:45.614Z,27.64
2022-07-26T16:24:15.238Z,27.72
2022-07-26T16:26:43.691Z,28.04
2022-07-26T16:29:12.144Z,28.29
2022-07-26T16:31:41.619Z,28.46
2022-07-26T16:34:10.530Z,28.65
2022-07-26T16:36:39.007Z,28.91
2022-07-26T16:39:07.891Z,28.85
2022-07-26T16:41:38.083Z,28.90
2022-07-26T16:44:06.595Z,28.76
2022-07-26T16:46:34.604Z,28.66
2022-07-26T16:49:03.008Z,28.43
2022-07-26T16:51:33.023Z,28.21
2022-07-26T16:54:01.091Z,28.07
2022-07-26T16:56:29.715Z,27.99
2022-07-26T16:58:59.517Z,28.00
2022-07-26T17:01:27.560Z,27.69
2022-07-26T17:03:55.538Z,27.61
2022-07-26T17:06:24.894Z,27.66
2022-07-26T17:08:53.267Z,27.59
2022-07-26T17:11:21.455Z,27.38
2022-07-26T17:13:49.878Z,27.30
2022-07-26T17:16:21.389Z,27.07
2022-07-26T17:18:53.433Z,27.10
2022-07-26T17:21:21.849Z,27.14
2022-07-26T17:23:52.458Z,27.04
2022-07-26T17:26:21.126Z,26.82
2022-07-26T17:28:49.091Z,26.69
2022-07-26T17:31:17.497Z,26.63
2022-07-26T17:33:48.000Z,26.70
2022-07-26T17:36:24.632Z,26.79
2022-07-26T17:38:52.766Z,26.82
2022-07-26T17:41:24.227Z,27.16
2022-07-26T17:44:02.968Z,27.04
2022-07-26T17:46:33.400Z,26.98
2022-07-26T17:49:07.356Z,26.75
2022-07-26T17:51:35.892Z,26.75
2022-07-26T17:54:04.484Z,26.60
2022-07-26T17:56:33.358Z,26.58
2022-07-26T17:59:01.791Z,26.60
2022-07-26T18:01:30.236Z,27.13
2022-07-26T18:03:58.557Z,26.69
2022-07-26T18:06:29.342Z,26.73
2022-07-26T18:08:57.382Z,26.51
2022-07-26T18:11:25.639Z,26.45
2022-07-26T18:13:54.785Z,26.44
2022-07-26T18:16:23.234Z,26.53
2022-07-26T18:18:52.226Z,26.39
2022-07-26T18:21:20.257Z,26.32
2022-07-26T18:24:15.448Z,26.36
2022-07-26T18:26:38.214Z,26.00
2022-07-26T18:29:06.810Z,25.93
2022-07-26T18:31:35.670Z,25.83
2022-07-26T18:34:06.611Z,25.84
2022-07-26T18:36:35.468Z,25.68
2022-07-26T18:39:05.212Z,25.49
2022-07-26T18:41:34.403Z,25.39
2022-07-26T18:44:03.234Z,25.36
2022-07-26T18:46:31.451Z,25.32
2022-07-26T18:49:02.382Z,25.50
2022-07-26T18:51:31.861Z,25.51
2022-07-26T18:54:00.425Z,25.43
2022-07-26T18:56:30.668Z,25.42
2022-07-26T18:58:58.818Z,25.32
2022-07-26T19:01:26.891Z,25.52
2022-07-26T19:03:55.562Z,25.53
2022-07-26T19:06:24.690Z,25.49
2022-07-26T19:08:52.930Z,25.42
2022-07-26T19:11:21.194Z,25.18
2022-07-26T19:13:52.052Z,25.19
2022-07-26T19:16:20.885Z,25.02
2022-07-26T19:18:53.788Z,25.42
2022-07-26T19:21:25.413Z,25.05
2022-07-26T19:23:53.456Z,25.03
2022-07-26T19:26:23.758Z,24.92
2022-07-26T19:28:53.754Z,24.89
2022-07-26T19:31:24.593Z,24.62
2022-07-26T19:33:53.152Z,24.64
2022-07-26T19:36:26.081Z,24.38
2022-07-26T19:38:55.710Z,24.27
2022-07-26T19:41:24.984Z,24.38
2022-07-26T19:43:54.778Z,24.46
2022-07-26T19:46:23.292Z,24.42
2022-07-26T19:48:52.061Z,24.32
2022-07-26T19:51:20.429Z,24.08
2022-07-26T19:53:48.568Z,23.93
2022-07-26T19:56:17.120Z,23.79
2022-07-26T19:58:46.148Z,23.81
2022-07-26T20:01:16.595Z,23.70
2022-07-26T20:03:44.569Z,23.58
2022-07-26T20:06:14.260Z,23.77
2022-07-26T20:08:42.647Z,23.70
2022-07-26T20:11:11.650Z,23.75
2022-07-26T20:13:39.805Z,23.60
2022-07-26T20:16:09.006Z,23.59
2022-07-26T20:18:38.551Z,23.46
2022-07-26T20:21:06.574Z,23.76
2022-07-26T20:23:35.507Z,23.90
2022-07-26T20:26:06.167Z,23.83
2022-07-26T20:28:34.630Z,23.49
2022-07-26T20:31:03.123Z,23.52
2022-07-26T20:33:32.006Z,23.53
2022-07-26T20:36:01.655Z,23.53
2022-07-26T20:38:29.633Z,23.54
2022-07-26T20:40:57.447Z,23.65
2022-07-26T20:43:29.208Z,23.54
2022-07-26T20:46:00.356Z,23.86
2022-07-26T20:48:28.347Z,23.49
2022-07-26T20:50:56.485Z,23.17
2022-07-26T20:53:26.355Z,23.49
2022-07-26T20:55:54.328Z,23.31
2022-07-26T20:58:22.246Z,23.32
2022-07-26T21:00:51.121Z,23.32
2022-07-26T21:03:19.187Z,23.13
2022-07-26T21:05:47.750Z,23.28
2022-07-26T21:08:15.877Z,23.13
2022-07-26T21:10:45.969Z,23.31
2022-07-26T21:13:13.910Z,23.14
2022-07-26T21:15:42.844Z,23.14
2022-07-26T21:18:12.310Z,23.10
2022-07-26T21:20:41.356Z,23.24
2022-07-26T21:23:17.445Z,23.09
2022-07-26T21:25:47.796Z,22.98
2022-07-26T21:28:15.951Z,23.15
2022-07-26T21:30:43.857Z,23.10
2022-07-26T21:33:11.882Z,23.18
2022-07-26T21:35:41.050Z,23.52
2022-07-26T21:38:09.310Z,23.22
2022-07-26T21:40:37.475Z,22.99
2022-07-26T21:43:06.742Z,22.94
2022-07-26T21:45:35.656Z,23.02
2022-07-26T21:48:03.865Z,22.87
2022-07-26T21:50:31.983Z,23.15
2022-07-26T21:53:01.291Z,22.78
2022-07-26T21:55:30.125Z,22.83
2022-07-26T21:57:57.976Z,23.27
2022-07-26T22:00:27.493Z,22.97
2022-07-26T22:02:55.498Z,22.84
2022-07-26T22:05:37.713Z,22.71
2022-07-26T22:08:08.188Z,22.42
2022-07-26T22:10:44.001Z,22.44
2022-07-26T22:13:16.329Z,22.41
2022-07-26T22:15:46.090Z,22.44
2022-07-26T22:18:14.825Z,22.28
2022-07-26T22:20:44.089Z,22.08
2022-07-26T22:23:13.733Z,22.13
2022-07-26T22:25:42.141Z,22.52
2022-07-26T22:28:11.504Z,22.10
2022-07-26T22:30:40.343Z,22.04
2022-07-26T22:33:11.656Z,22.01
2022-07-26T22:35:39.725Z,21.92
2022-07-26T22:38:09.858Z,21.91
2022-07-26T22:40:38.981Z,21.98
2022-07-26T22:43:08.095Z,21.92
2022-07-26T22:45:36.124Z,21.79
2022-07-26T22:48:05.757Z,21.88
2022-07-26T22:50:35.271Z,21.77
2022-07-26T22:53:03.520Z,21.77
2022-07-26T22:55:32.752Z,21.84
2022-07-26T22:58:01.123Z,21.79
2022-07-26T23:00:30.156Z,21.87
2022-07-26T23:02:58.187Z,21.72
2022-07-26T23:05:34.598Z,21.61
2022-07-26T23:11:04.114Z,21.68
2022-07-26T23:13:32.091Z,21.59
2022-07-26T23:16:01.666Z,21.59
2022-07-26T23:18:30.549Z,21.43
2022-07-26T23:20:58.836Z,21.45
2022-07-26T23:23:29.320Z,21.26
2022-07-26T23:25:59.292Z,21.17
2022-07-26T23:28:37.601Z,21.32
2022-07-26T23:31:08.242Z,21.37
2022-07-26T23:33:50.913Z,21.13
2022-07-26T23:36:34.596Z,21.10
2022-07-26T23:39:04.558Z,21.14
2022-07-26T23:41:33.063Z,21.58
2022-07-26T23:44:01.260Z,21.35
2022-07-26T23:46:29.281Z,21.41
2022-07-26T23:48:58.537Z,21.14
2022-07-26T23:51:26.953Z,21.19
2022-07-26T23:53:54.974Z,21.18
2022-07-26T23:56:24.432Z,21.19
2022-07-26T23:58:52.422Z,21.02
